Terminal Aerodrome Forecast
Issued by NWS Wichita, KS

Home | Current Version | Previous Version | Graphics & Text | Print | Product List | Glossary On
Versions: 1 2 3 4 5 6 7 8 9 10 11 12 13
680
FTUS43 KICT 150535
TAFICT
TAF
KICT 150535Z 1506/1606 18009KT P6SM BKN200
     FM150800 20012G24KT P6SM BKN120 WS020/25050KT
     FM151300 21012KT P6SM BKN150
     FM151900 26015G23KT P6SM BKN200
     FM152300 33013KT P6SM BKN200
     FM160400 01022G31KT P6SM BKN110=

USA.gov is the U.S. government's official web portal to all federal, state and local government web resources and services.